Nearby METAR Reports

 

EGNM - Leeds And Bradford, United Kingdom
Distance from station: N 11mi, 18km
Updated: 19/04/2018 13:50
Clear
Clear
 Wind from SSW
Wind: SSW 8 mph , 13 km/h
Temperature: 23°C
Dew Point: 9°C
Humidity: 41%
Barometer: 1023 hPa
Summary: Clear
Visibility: greater than 7 miles , 10 km
2018/04/19 12:50 EGNM 191250Z 20007KT 150V270 CAVOK 23/09 Q1023
EGXG - Church Fenton, United Kingdom
Distance from station: ENE 19mi, 31km
Updated: 19/12/2013 08:50
NOT Current
Clear
Clear
 Wind from SW
Wind: SW 16 mph , 26 km/h
Temperature: 4°C
Wind Chill: -1°C
Dew Point: -1°C
Humidity: 70%
Barometer: 996 hPa
Clouds: Clear
Visibility: 6 miles , 10 km
2013/12/19 08:50 EGXG 190850Z AUTO 23014KT 9999 NCD 04/M01 Q0996
 
EGXU - Linton-On-Ouse, United Kingdom
Distance from station: NNE 28mi, 45km
Updated: 19/04/2018 13:50
Clear
Clear
 Wind from S
Wind: S 5 mph , 7 km/h
Temperature: 24°C
Dew Point: 11°C
Humidity: 44%
Barometer: 1022 hPa
Summary: Clear
Visibility: greater than 7 miles , 10 km
2018/04/19 12:50 EGXU 191250Z 17004KT CAVOK 24/11 Q1022 BLU NOSIG
EGCN - Doncaster Sheffield, United Kingdom
Distance from station: ESE 30mi, 45km
Updated: 19/04/2018 13:50
Clear
Clear
 Wind from SSW
Wind: SSW 9 mph , 15 km/h
Temperature: 25°C
Dew Point: 15°C
Humidity: 54%
Barometer: 1023 hPa
Summary: Clear
Visibility: greater than 7 miles , 10 km
2018/04/19 12:50 EGCN 191250Z 20008KT 160V230 CAVOK 25/15 Q1023
 
EGXD - Dishforth RAF, United Kingdom
Distance from station: NNE 31mi, 49km
Updated: 06/06/2016 10:50
NOT Current
Clear
Clear
 Wind from SSE
Wind: SSE 5 mph , 7 km/h
Temperature: 18°C
Dew Point: 11°C
Humidity: 64%
Barometer: 1023 hPa
Clouds: Clear
Visibility: 6 miles , 10 km
2016/06/06 09:50 EGXD 060950Z AUTO 16004KT 9999 // NCD 18/11 Q1023
EGXZ - Topcliffe RAF, United Kingdom
Distance from station: NNE 36mi, 57km
Updated: 19/04/2018 13:50
Clear
Clear
 Wind from S
Wind: S 6 mph , 9 km/h
Temperature: 23°C
Dew Point: 13°C
Humidity: 53%
Barometer: 1022 hPa
Summary: Clear
Visibility: greater than 7 miles , 10 km
2018/04/19 12:50 EGXZ 191250Z 17005KT CAVOK 23/13 Q1022 BLU
 
EGCC - Manchester Intl, United Kingdom
Distance from station: SW 36mi, 58km
Updated: 19/04/2018 13:50
Clear
Clear
 Wind from SW
Wind: SW 7 mph , 11 km/h
Temperature: 23°C
Dew Point: 10°C
Humidity: 44%
Barometer: 1023 hPa
Clouds: Clear
Visibility: 6 miles , 10 km
2018/04/19 12:50 EGCC 191250Z AUTO 23006KT 140V270 9999 NCD 23/10 Q1023 NOSIG
EGXE - Leeming RAF, United Kingdom
Distance from station: N 40mi, 65km
Updated: 19/04/2018 13:50
Clear
Clear
 Wind from SSW
Wind: SSW 7 mph , 11 km/h
Temperature: 23°C
Dew Point: 11°C
Humidity: 47%
Barometer: 1022 hPa
Summary: Clear
Visibility: greater than 7 miles , 10 km
2018/04/19 12:50 EGXE 191250Z 21006KT CAVOK 23/11 Q1022 BLU NOSIG